createdAt,value
2024-02-17T00:00:02.029Z,16.63
2024-02-17T00:02:28.717Z,16.60
2024-02-17T00:04:55.430Z,17.02
2024-02-17T00:07:22.203Z,17.17
2024-02-17T00:09:48.846Z,16.60
2024-02-17T00:12:15.625Z,16.55
2024-02-17T00:14:42.324Z,16.90
2024-02-17T00:17:08.882Z,15.50
2024-02-17T00:19:35.786Z,16.23
2024-02-17T00:22:02.504Z,15.63
2024-02-17T00:24:29.202Z,14.82
2024-02-17T00:26:55.833Z,13.57
2024-02-17T00:29:22.425Z,14.32
2024-02-17T00:31:49.351Z,13.98
2024-02-17T00:34:16.236Z,15.40
2024-02-17T00:36:43.258Z,15.65
2024-02-17T00:39:11.270Z,14.50
2024-02-17T00:41:38.124Z,14.40
2024-02-17T00:44:05.696Z,14.45
2024-02-17T00:46:32.614Z,14.00
2024-02-17T00:48:59.425Z,13.77
2024-02-17T00:51:26.158Z,13.75
2024-02-17T00:53:52.759Z,14.77
2024-02-17T00:56:22.480Z,15.98
2024-02-17T00:58:49.310Z,15.13
2024-02-17T01:01:23.200Z,15.43
2024-02-17T01:03:56.591Z,15.35
2024-02-17T01:06:24.092Z,14.60
2024-02-17T01:08:50.778Z,14.70
2024-02-17T01:11:18.824Z,14.25
2024-02-17T01:13:47.905Z,13.80
2024-02-17T01:16:14.641Z,13.73
2024-02-17T01:18:41.565Z,13.57
2024-02-17T01:21:08.294Z,13.65
2024-02-17T01:23:34.946Z,13.77
2024-02-17T01:26:01.560Z,14.60
2024-02-17T01:28:28.093Z,14.65
2024-02-17T01:30:54.784Z,13.55
2024-02-17T01:33:21.354Z,12.75
2024-02-17T01:35:47.899Z,13.25
2024-02-17T01:38:14.625Z,12.43
2024-02-17T01:40:41.949Z,12.45
2024-02-17T01:43:08.884Z,12.60
2024-02-17T01:45:35.936Z,13.93
2024-02-17T01:48:03.256Z,13.93
2024-02-17T01:50:30.273Z,12.80
2024-02-17T01:52:58.474Z,14.35
2024-02-17T01:55:25.239Z,13.10
2024-02-17T01:57:52.017Z,13.13
2024-02-17T02:00:19.668Z,12.63
2024-02-17T02:02:49.361Z,13.10
2024-02-17T02:05:16.159Z,13.20
2024-02-17T02:07:43.074Z,13.02
2024-02-17T02:10:09.807Z,13.60
2024-02-17T02:12:36.595Z,14.32
2024-02-17T02:15:07.270Z,11.88
2024-02-17T02:17:34.242Z,13.75
2024-02-17T02:20:01.030Z,12.73
2024-02-17T02:22:27.750Z,12.40
2024-02-17T02:24:57.026Z,12.50
2024-02-17T02:27:23.594Z,11.68
2024-02-17T02:29:50.162Z,12.60
2024-02-17T02:32:16.829Z,11.60
2024-02-17T02:34:43.435Z,12.40
2024-02-17T02:37:10.060Z,12.25
2024-02-17T02:39:36.920Z,12.27
2024-02-17T02:42:03.503Z,11.82
2024-02-17T02:44:30.114Z,12.27
2024-02-17T02:46:56.636Z,12.05
2024-02-17T02:49:23.423Z,11.45
2024-02-17T02:51:50.120Z,11.85
2024-02-17T02:54:18.383Z,12.18
2024-02-17T02:56:45.058Z,11.25
2024-02-17T02:59:11.829Z,12.60
2024-02-17T03:01:38.391Z,12.20
2024-02-17T03:04:05.150Z,13.50
2024-02-17T03:06:32.136Z,12.50
2024-02-17T03:08:58.744Z,11.60
2024-02-17T03:11:25.417Z,12.90
2024-02-17T03:13:52.452Z,11.98
2024-02-17T03:16:25.514Z,11.68
2024-02-17T03:18:54.921Z,12.40
2024-02-17T03:21:21.869Z,11.60
2024-02-17T03:23:48.523Z,11.55
2024-02-17T03:26:15.068Z,11.88
2024-02-17T03:28:41.602Z,11.30
2024-02-17T03:31:08.236Z,12.20
2024-02-17T03:33:35.077Z,11.00
2024-02-17T03:36:01.830Z,10.93
2024-02-17T03:38:28.454Z,11.73
2024-02-17T03:40:55.001Z,12.13
2024-02-17T03:43:21.665Z,12.20
2024-02-17T03:45:48.350Z,10.98
2024-02-17T03:48:15.624Z,10.75
2024-02-17T03:50:42.427Z,11.60
2024-02-17T03:53:09.022Z,10.68
2024-02-17T03:55:35.665Z,10.85
2024-02-17T03:58:02.202Z,10.57
2024-02-17T04:00:28.799Z,10.75
2024-02-17T04:02:55.455Z,10.35
2024-02-17T04:05:22.167Z,9.95
2024-02-17T04:07:48.939Z,11.60
2024-02-17T04:10:17.033Z,11.20
2024-02-17T04:12:43.971Z,10.75
2024-02-17T04:15:11.145Z,11.45
2024-02-17T04:17:37.839Z,10.57
2024-02-17T04:20:07.788Z,11.07
2024-02-17T04:22:34.496Z,10.30
2024-02-17T04:25:01.108Z,10.68
2024-02-17T04:27:27.762Z,10.32
2024-02-17T04:29:54.384Z,10.32
2024-02-17T04:32:21.305Z,10.68
2024-02-17T04:34:49.246Z,11.50
2024-02-17T04:37:15.994Z,12.48
2024-02-17T04:39:42.653Z,11.65
2024-02-17T04:42:09.302Z,11.90
2024-02-17T04:44:36.916Z,11.48
2024-02-17T04:47:03.555Z,12.20
2024-02-17T04:49:30.066Z,11.25
2024-02-17T04:51:56.658Z,11.82
2024-02-17T04:54:23.247Z,12.40
2024-02-17T04:56:49.828Z,13.40
2024-02-17T04:59:16.416Z,13.15
2024-02-17T05:01:46.103Z,14.20
2024-02-17T05:04:12.833Z,14.13
2024-02-17T05:06:39.439Z,13.48
2024-02-17T05:09:06.114Z,15.35
2024-02-17T05:11:32.751Z,14.18
2024-02-17T05:13:59.483Z,13.07
2024-02-17T05:16:27.642Z,12.68
2024-02-17T05:18:54.277Z,12.25
2024-02-17T05:21:20.851Z,13.85
2024-02-17T05:23:47.370Z,13.88
2024-02-17T05:26:13.971Z,13.43
2024-02-17T05:28:40.579Z,14.07
2024-02-17T05:31:24.279Z,13.82
2024-02-17T05:33:50.887Z,13.45
2024-02-17T05:36:17.563Z,13.75
2024-02-17T05:38:44.107Z,12.27
2024-02-17T05:41:10.666Z,13.38
2024-02-17T05:43:37.218Z,12.43
2024-02-17T05:46:03.897Z,13.23
2024-02-17T05:48:30.650Z,12.90
2024-02-17T05:50:57.308Z,12.88
2024-02-17T05:53:23.903Z,12.40
2024-02-17T05:55:50.666Z,12.85
2024-02-17T05:58:17.237Z,13.90
2024-02-17T06:00:43.870Z,11.82
2024-02-17T06:03:10.608Z,14.05
2024-02-17T06:05:37.168Z,13.35
2024-02-17T06:08:04.627Z,13.00
2024-02-17T06:10:31.223Z,13.93
2024-02-17T06:12:57.770Z,13.68
2024-02-17T06:15:25.349Z,13.30
2024-02-17T06:18:12.190Z,15.23
2024-02-17T06:20:58.344Z,14.32
2024-02-17T06:23:24.897Z,14.43
2024-02-17T06:25:52.560Z,16.02
2024-02-17T06:28:20.100Z,15.82
2024-02-17T06:30:46.784Z,15.88
2024-02-17T06:33:13.617Z,17.88
2024-02-17T06:35:40.597Z,16.55
2024-02-17T06:38:07.185Z,15.18
2024-02-17T06:40:33.816Z,17.70
2024-02-17T06:43:00.491Z,14.90
2024-02-17T06:45:27.039Z,18.25
2024-02-17T06:47:53.693Z,14.63
2024-02-17T06:50:25.090Z,14.38
2024-02-17T06:52:52.374Z,14.18
2024-02-17T06:55:19.402Z,13.93
2024-02-17T06:57:46.200Z,15.20
2024-02-17T07:00:13.424Z,14.43
2024-02-17T07:02:40.029Z,14.63
2024-02-17T07:05:06.789Z,14.05
2024-02-17T07:07:34.411Z,14.40
2024-02-17T07:10:05.197Z,13.95
2024-02-17T07:12:36.001Z,15.60
2024-02-17T07:15:03.117Z,16.20
2024-02-17T07:17:30.193Z,16.95
2024-02-17T07:19:56.944Z,15.55
2024-02-17T07:22:24.015Z,15.68
2024-02-17T07:24:52.598Z,15.65
2024-02-17T07:27:19.502Z,15.10
2024-02-17T07:29:46.116Z,14.70
2024-02-17T07:32:13.404Z,14.70
2024-02-17T07:34:43.087Z,14.73
2024-02-17T07:37:09.782Z,15.45
2024-02-17T07:39:37.226Z,15.02
2024-02-17T07:42:03.856Z,14.38
2024-02-17T07:44:30.398Z,15.23
2024-02-17T07:46:56.918Z,13.45
2024-02-17T07:49:23.910Z,13.73
2024-02-17T07:51:50.656Z,13.93
2024-02-17T07:54:17.248Z,15.00
2024-02-17T07:56:43.771Z,15.73
2024-02-17T07:59:10.323Z,13.88
2024-02-17T08:01:36.979Z,14.40
2024-02-17T08:04:03.744Z,18.30
2024-02-17T08:06:30.419Z,14.73
2024-02-17T08:08:57.040Z,15.60
2024-02-17T08:11:23.652Z,14.95
2024-02-17T08:13:50.497Z,14.50
2024-02-17T08:16:17.155Z,14.27
2024-02-17T08:18:44.684Z,15.30
2024-02-17T08:21:11.692Z,15.05
2024-02-17T08:23:38.406Z,14.45
2024-02-17T08:26:08.586Z,13.80
2024-02-17T08:28:35.418Z,14.30
2024-02-17T08:31:02.072Z,14.00
2024-02-17T08:33:28.769Z,13.82
2024-02-17T08:35:55.430Z,13.57
2024-02-17T08:38:21.959Z,13.00
2024-02-17T08:40:48.587Z,13.77
2024-02-17T08:43:16.108Z,14.18
2024-02-17T08:45:42.668Z,13.10
2024-02-17T08:48:09.455Z,14.07
2024-02-17T08:50:37.340Z,13.88
2024-02-17T08:53:04.520Z,13.05
2024-02-17T08:55:31.338Z,13.43
2024-02-17T08:57:57.989Z,14.23
2024-02-17T09:00:25.497Z,13.95
2024-02-17T09:02:52.139Z,14.75
2024-02-17T09:05:18.698Z,13.45
2024-02-17T09:07:45.288Z,15.32
2024-02-17T09:10:16.843Z,14.98
2024-02-17T09:12:43.877Z,13.90
2024-02-17T09:15:10.839Z,14.75
2024-02-17T09:17:37.850Z,14.43
2024-02-17T09:20:08.300Z,15.05
2024-02-17T09:22:34.989Z,14.45
2024-02-17T09:25:01.617Z,13.00
2024-02-17T09:27:28.227Z,13.05
2024-02-17T09:29:54.877Z,13.80
2024-02-17T09:32:21.448Z,13.20
2024-02-17T09:34:48.310Z,13.23
2024-02-17T09:37:14.943Z,12.70
2024-02-17T09:39:41.880Z,12.60
2024-02-17T09:42:08.880Z,11.52
2024-02-17T09:44:35.436Z,12.18
2024-02-17T09:49:35.615Z,12.50
2024-02-17T09:52:02.400Z,11.67
2024-02-17T09:54:30.134Z,11.30
2024-02-17T09:56:56.826Z,10.98
2024-02-17T09:59:23.462Z,10.80
2024-02-17T10:01:50.116Z,11.02
2024-02-17T10:04:16.924Z,9.65
2024-02-17T10:06:43.763Z,9.45
2024-02-17T10:09:18.163Z,10.73
2024-02-17T10:11:44.721Z,9.40
2024-02-17T10:14:14.061Z,9.18
2024-02-17T10:16:40.786Z,7.75
2024-02-17T10:19:08.099Z,8.13
2024-02-17T10:21:38.776Z,8.02
2024-02-17T10:24:06.409Z,8.25
2024-02-17T10:26:33.715Z,8.45
2024-02-17T10:29:00.674Z,8.10
2024-02-17T10:31:28.590Z,9.88
2024-02-17T10:33:55.364Z,13.82
2024-02-17T10:36:24.326Z,8.98
2024-02-17T10:38:51.932Z,8.48
2024-02-17T10:41:19.497Z,7.78
2024-02-17T10:43:48.158Z,8.63
2024-02-17T10:48:55.737Z,7.30
2024-02-17T10:51:23.183Z,7.47
2024-02-17T10:53:52.163Z,7.78
2024-02-17T10:56:19.897Z,6.95
2024-02-17T10:58:47.089Z,9.55
2024-02-17T11:01:17.666Z,7.40
2024-02-17T11:03:46.033Z,7.13
2024-02-17T11:06:15.335Z,8.23
2024-02-17T11:08:42.224Z,7.43
2024-02-17T11:11:22.119Z,7.63
2024-02-17T11:13:48.741Z,8.05
2024-02-17T11:16:15.340Z,7.70
2024-02-17T11:18:42.256Z,8.02
2024-02-17T11:21:09.013Z,8.18
2024-02-17T11:23:38.237Z,7.88
2024-02-17T11:41:01.341Z,7.80
2024-02-17T11:43:28.653Z,8.57
2024-02-17T11:45:58.657Z,8.35
2024-02-17T11:48:25.454Z,7.53
2024-02-17T11:51:01.884Z,7.93
2024-02-17T11:53:28.481Z,8.00
2024-02-17T11:56:00.520Z,8.18
2024-02-17T11:58:27.165Z,8.50
2024-02-17T12:00:59.956Z,9.18
2024-02-17T12:03:29.886Z,9.15
2024-02-17T12:06:02.523Z,9.10
2024-02-17T12:08:30.050Z,9.32
2024-02-17T12:10:57.141Z,9.68
2024-02-17T12:13:24.213Z,9.30
2024-02-17T12:15:51.632Z,9.38
2024-02-17T12:18:18.745Z,9.85
2024-02-17T12:20:46.968Z,10.30
2024-02-17T12:23:15.496Z,9.20
2024-02-17T12:25:42.271Z,9.45
2024-02-17T12:28:08.940Z,10.23
2024-02-17T12:30:55.046Z,9.23
2024-02-17T12:33:22.923Z,9.50
2024-02-17T12:35:50.336Z,10.00
2024-02-17T12:38:20.813Z,9.63
2024-02-17T12:40:49.055Z,9.03
2024-02-17T12:43:22.768Z,9.48
2024-02-17T12:45:49.903Z,9.88
2024-02-17T12:48:20.773Z,10.45
2024-02-17T12:50:47.954Z,9.45
2024-02-17T12:53:19.317Z,9.07
2024-02-17T12:55:46.561Z,9.07
2024-02-17T12:58:13.536Z,9.93
2024-02-17T13:00:40.689Z,10.15
2024-02-17T13:03:08.577Z,9.43
2024-02-17T13:05:35.321Z,10.02
2024-02-17T13:08:02.061Z,9.38
2024-02-17T13:10:46.958Z,10.30
2024-02-17T13:13:13.637Z,9.85
2024-02-17T13:15:40.623Z,9.38
2024-02-17T13:18:08.372Z,9.30
2024-02-17T13:20:35.151Z,9.13
2024-02-17T13:23:01.777Z,10.20
2024-02-17T13:25:28.557Z,10.52
2024-02-17T13:27:55.054Z,11.10
2024-02-17T13:30:22.293Z,11.82
2024-02-17T13:32:49.450Z,11.98
2024-02-17T13:35:17.376Z,11.07
2024-02-17T13:37:44.600Z,9.82
2024-02-17T13:42:46.673Z,9.27
2024-02-17T13:45:14.172Z,9.18
2024-02-17T13:47:41.270Z,8.45
2024-02-17T13:50:12.527Z,9.55
2024-02-17T13:52:39.237Z,9.68
2024-02-17T13:55:06.093Z,11.52
2024-02-17T13:57:34.147Z,10.18
2024-02-17T14:00:01.553Z,12.90
2024-02-17T14:05:00.005Z,12.05
2024-02-17T14:07:26.834Z,12.43
2024-02-17T14:12:20.767Z,13.20
2024-02-17T14:14:47.556Z,13.45
2024-02-17T14:29:41.820Z,15.18
2024-02-17T14:32:08.412Z,13.15
2024-02-17T14:34:35.084Z,13.32
2024-02-17T14:37:02.205Z,13.55
2024-02-17T14:39:28.957Z,13.80
2024-02-17T14:44:22.620Z,14.57
2024-02-17T14:46:49.229Z,13.35
2024-02-17T14:49:16.030Z,14.60
2024-02-17T14:51:43.503Z,12.85
2024-02-17T14:56:37.031Z,14.15
2024-02-17T14:59:03.574Z,12.85
2024-02-17T15:01:30.384Z,12.05
2024-02-17T15:03:57.151Z,13.85
2024-02-17T15:08:50.650Z,13.13
2024-02-17T15:18:44.224Z,12.57
2024-02-17T15:21:10.976Z,12.27
2024-02-17T15:28:33.711Z,13.38
2024-02-17T15:31:00.452Z,13.80
2024-02-17T15:33:28.228Z,14.32
2024-02-17T15:35:56.431Z,15.55
2024-02-17T15:38:26.000Z,14.90
2024-02-17T15:40:54.548Z,15.13
2024-02-17T15:43:24.213Z,14.70
2024-02-17T15:45:50.801Z,13.98
2024-02-17T15:48:18.067Z,17.50
2024-02-17T15:50:44.776Z,14.05
2024-02-17T15:53:12.024Z,13.35
2024-02-17T15:55:38.685Z,14.23
2024-02-17T15:58:05.355Z,12.70
2024-02-17T16:00:32.180Z,12.93
2024-02-17T16:02:58.899Z,13.68
2024-02-17T16:05:25.614Z,13.32
2024-02-17T16:07:52.374Z,12.40
2024-02-17T16:10:19.281Z,12.13
2024-02-17T16:12:47.349Z,12.73
2024-02-17T16:15:19.593Z,13.63
2024-02-17T16:17:48.775Z,13.30
2024-02-17T16:20:16.229Z,14.15
2024-02-17T16:22:43.618Z,15.95
2024-02-17T16:25:11.156Z,16.50
2024-02-17T16:27:38.312Z,15.43
2024-02-17T16:30:05.366Z,14.15
2024-02-17T16:32:32.016Z,14.30
2024-02-17T16:34:58.713Z,15.57
2024-02-17T16:37:25.608Z,19.77
2024-02-17T16:39:52.182Z,20.70
2024-02-17T16:42:18.896Z,15.90
2024-02-17T16:44:45.507Z,15.20
2024-02-17T16:47:13.414Z,15.40
2024-02-17T16:49:40.657Z,75.85
2024-02-17T16:52:07.836Z,21.98
2024-02-17T16:54:34.693Z,21.73
2024-02-17T16:57:03.589Z,21.25
2024-02-17T16:59:30.712Z,57.53
2024-02-17T17:01:57.305Z,47.28
2024-02-17T17:04:26.326Z,72.05
2024-02-17T17:06:53.022Z,45.78
2024-02-17T17:09:19.654Z,23.85
2024-02-17T17:11:46.176Z,25.05
2024-02-17T17:14:12.716Z,21.42
2024-02-17T17:16:39.440Z,19.92
2024-02-17T17:19:06.003Z,20.55
2024-02-17T17:21:32.570Z,18.98
2024-02-17T17:23:59.105Z,17.85
2024-02-17T17:26:39.388Z,19.40
2024-02-17T17:29:13.078Z,26.92
2024-02-17T17:31:39.615Z,32.80
2024-02-17T17:34:06.311Z,28.67
2024-02-17T17:36:32.966Z,93.38
2024-02-17T17:39:00.753Z,50.45
2024-02-17T17:41:29.397Z,41.35
2024-02-17T17:43:56.223Z,36.90
2024-02-17T17:46:22.755Z,36.95
2024-02-17T17:48:51.611Z,35.38
2024-02-17T17:51:18.420Z,32.22
2024-02-17T17:53:45.084Z,38.13
2024-02-17T17:56:12.885Z,35.20
2024-02-17T17:58:39.614Z,42.97
2024-02-17T18:01:06.291Z,35.17
2024-02-17T18:03:33.095Z,47.95
2024-02-17T18:05:59.722Z,49.53
2024-02-17T18:08:27.611Z,44.75
2024-02-17T18:10:54.641Z,40.60
2024-02-17T18:13:21.539Z,42.88
2024-02-17T18:15:48.238Z,45.40
2024-02-17T18:18:15.188Z,59.47
2024-02-17T18:20:41.835Z,67.60
2024-02-17T18:23:08.492Z,67.72
2024-02-17T18:25:36.453Z,68.22
2024-02-17T18:28:03.156Z,72.97
2024-02-17T18:30:29.903Z,72.13
2024-02-17T18:32:56.534Z,62.72
2024-02-17T18:35:23.098Z,58.97
2024-02-17T18:37:49.633Z,61.78
2024-02-17T18:40:16.505Z,62.55
2024-02-17T18:42:43.121Z,64.80
2024-02-17T18:45:09.837Z,61.05
2024-02-17T18:47:36.510Z,56.30
2024-02-17T18:50:03.305Z,67.03
2024-02-17T18:52:30.328Z,59.28
2024-02-17T18:54:57.415Z,77.05
2024-02-17T18:57:39.485Z,75.63
2024-02-17T19:02:34.595Z,58.88
2024-02-17T19:05:01.154Z,60.40
2024-02-17T19:07:27.698Z,69.65
2024-02-17T19:09:54.318Z,76.05
2024-02-17T19:12:20.922Z,69.65
2024-02-17T19:14:49.034Z,62.90
2024-02-17T19:17:16.359Z,66.20
2024-02-17T19:19:43.169Z,60.40
2024-02-17T19:22:09.912Z,68.40
2024-02-17T19:24:36.580Z,72.25
2024-02-17T19:27:03.278Z,66.18
2024-02-17T19:29:29.802Z,70.90
2024-02-17T19:31:56.346Z,71.95
2024-02-17T19:34:23.025Z,77.55
2024-02-17T19:36:49.780Z,89.57
2024-02-17T19:39:16.462Z,93.20
2024-02-17T19:41:43.154Z,84.00
2024-02-17T19:44:09.692Z,94.97
2024-02-17T19:46:36.296Z,73.07
2024-02-17T19:49:06.637Z,69.72
2024-02-17T19:51:33.562Z,84.97
2024-02-17T19:54:00.255Z,84.50
2024-02-17T19:56:26.760Z,79.68
2024-02-17T19:58:53.269Z,79.30
2024-02-17T20:01:23.584Z,77.50
2024-02-17T20:03:54.756Z,79.82
2024-02-17T20:06:22.769Z,71.88
2024-02-17T20:08:49.701Z,87.72
2024-02-17T20:11:16.499Z,70.60
2024-02-17T20:13:43.095Z,77.25
2024-02-17T20:16:09.854Z,71.03
2024-02-17T20:18:36.590Z,65.45
2024-02-17T20:21:06.935Z,67.15
2024-02-17T20:23:33.807Z,73.55
2024-02-17T20:26:00.407Z,64.57
2024-02-17T20:28:26.989Z,63.88
2024-02-17T20:30:53.622Z,73.05
2024-02-17T20:33:21.178Z,59.75
2024-02-17T20:35:47.892Z,66.95
2024-02-17T20:38:14.463Z,67.95
2024-02-17T20:40:41.063Z,66.15
2024-02-17T20:43:07.672Z,129.52
2024-02-17T20:45:34.490Z,88.95
2024-02-17T20:48:01.537Z,71.32
2024-02-17T20:50:28.126Z,68.40
2024-02-17T20:52:54.679Z,68.82
2024-02-17T20:55:22.489Z,64.50
2024-02-17T20:57:50.772Z,69.00
2024-02-17T21:00:17.796Z,76.28
2024-02-17T21:02:44.399Z,83.15
2024-02-17T21:05:11.235Z,69.68
2024-02-17T21:07:38.022Z,68.07
2024-02-17T21:10:05.336Z,68.30
2024-02-17T21:13:23.067Z,64.38
2024-02-17T21:15:49.694Z,63.83
2024-02-17T21:18:16.530Z,64.50
2024-02-17T21:20:43.271Z,67.80
2024-02-17T21:23:09.874Z,67.03
2024-02-17T21:25:36.574Z,66.97
2024-02-17T21:28:18.561Z,63.85
2024-02-17T21:33:12.944Z,73.13
2024-02-17T21:35:39.561Z,68.55
2024-02-17T21:38:06.095Z,63.65
2024-02-17T21:40:32.638Z,64.38
2024-02-17T21:42:59.291Z,68.32
2024-02-17T21:45:27.064Z,67.07
2024-02-17T21:47:53.696Z,71.97
2024-02-17T21:50:20.446Z,73.40
2024-02-17T21:52:47.035Z,81.72
2024-02-17T21:55:13.649Z,75.75
2024-02-17T21:57:41.092Z,80.53
2024-02-17T22:00:07.975Z,78.72
2024-02-17T22:02:34.499Z,73.40
2024-02-17T22:05:01.169Z,72.43
2024-02-17T22:07:31.571Z,66.85
2024-02-17T22:09:58.531Z,54.97
2024-02-17T22:12:25.062Z,51.63
2024-02-17T22:14:51.611Z,49.28
2024-02-17T22:17:18.147Z,46.85
2024-02-17T22:19:44.961Z,46.63
2024-02-17T22:22:11.981Z,45.33
2024-02-17T22:24:38.675Z,45.72
2024-02-17T22:27:05.305Z,43.08
2024-02-17T22:29:59.664Z,42.75
2024-02-17T22:32:26.213Z,41.78
2024-02-17T22:34:52.885Z,40.63
2024-02-17T22:37:19.434Z,39.25
2024-02-17T22:39:46.004Z,38.95
2024-02-17T22:42:12.626Z,39.78
2024-02-17T22:44:39.240Z,40.78
2024-02-17T22:47:05.916Z,41.33
2024-02-17T22:49:32.608Z,39.90
2024-02-17T22:51:59.332Z,40.08
2024-02-17T22:54:26.038Z,38.20
2024-02-17T22:56:52.606Z,36.95
2024-02-17T22:59:19.436Z,36.85
2024-02-17T23:01:46.077Z,36.95
2024-02-17T23:04:12.843Z,35.83
2024-02-17T23:06:43.498Z,35.78
2024-02-17T23:09:10.061Z,36.42
2024-02-17T23:11:37.302Z,35.30
2024-02-17T23:14:54.871Z,36.05
2024-02-17T23:17:21.458Z,34.40
2024-02-17T23:19:49.059Z,37.28
2024-02-17T23:22:15.761Z,35.55
2024-02-17T23:24:43.022Z,35.00
2024-02-17T23:27:09.584Z,34.75
2024-02-17T23:29:36.578Z,32.53
2024-02-17T23:32:03.160Z,35.00
2024-02-17T23:34:29.933Z,34.85
2024-02-17T23:36:56.599Z,34.33
2024-02-17T23:39:23.237Z,33.15
2024-02-17T23:41:49.852Z,31.00
2024-02-17T23:44:17.676Z,31.52
2024-02-17T23:46:44.255Z,34.42
2024-02-17T23:49:10.951Z,32.33
2024-02-17T23:51:37.598Z,33.95
2024-02-17T23:54:04.233Z,32.25
2024-02-17T23:56:30.759Z,31.90
2024-02-17T23:58:57.350Z,34.88
